TAF Text Data
IDs:
Format:
Raw Decoded Include METAR

Data at: 1418 UTC 10 Jul 2020

KFTY 101127Z 1012/1112 28003KT 1/2SM FG OVC002
  FM101300 VRB03KT P6SM SCT040
  FM101600 28006KT P6SM SCT050
  FM111000 32005KT P6SM SKC